Time;durP1;ratioP1;P1;durP2;ratioP2;P2;SDS_P1;SDS_P2;PMS_P1;PMS_P2;Temp;Humidity;BMP_temperature;BMP_pressure;BME280_temperature;BME280_humidity;BME280_pressure;Samples;Min_cycle;Max_cycle;Signal;HPM_P1;HPM_P2
2021/11/08 00:02:09;;;;;;;17.73;2.85;;;;;;;13.04;55.68;100926.31;6125260;23;97815;-82
2021/11/08 00:04:36;;;;;;;24.30;3.13;;;;;;;12.36;57.57;100924.72;6125874;23;99028;-82
2021/11/08 00:07:04;;;;;;;23.17;2.92;;;;;;;12.41;57.58;100911.28;6125523;23;97121;-82
2021/11/08 00:09:31;;;;;;;18.65;3.60;;;;;;;12.85;57.16;100924.50;6134779;23;97145;-82
2021/11/08 00:11:59;;;;;;;17.50;2.90;;;;;;;12.57;57.26;100919.47;6129069;23;97775;-82
2021/11/08 00:14:27;;;;;;;13.23;2.30;;;;;;;12.63;57.67;100920.09;6141855;23;102213;-81
2021/11/08 00:17:02;;;;;;;16.13;3.28;;;;;;;12.72;57.34;100930.34;6148295;22;96626;-83
2021/11/08 00:19:46;;;;;;;21.50;2.70;;;;;;;12.78;57.27;100922.13;6148462;22;97045;-82
2021/11/08 00:22:13;;;;;;;21.35;2.97;;;;;;;12.89;57.07;100924.31;6143883;22;99252;-82
2021/11/08 00:24:42;;;;;;;22.02;3.00;;;;;;;12.80;57.75;100931.81;6115171;23;97831;-82
2021/11/08 00:27:10;;;;;;;19.15;2.55;;;;;;;13.06;57.03;100923.63;6119119;22;96647;-84
2021/11/08 00:29:37;;;;;;;19.70;2.63;;;;;;;12.86;57.41;100927.13;6146885;23;96813;-83
2021/11/08 00:32:05;;;;;;;15.57;3.03;;;;;;;12.66;57.75;100930.59;6139150;22;98079;-84
2021/11/08 00:34:33;;;;;;;18.88;2.50;;;;;;;12.61;58.79;100926.38;6127890;23;98482;-84
2021/11/08 00:37:00;;;;;;;18.55;2.65;;;;;;;12.78;58.56;100935.38;6128382;23;96927;-84
2021/11/08 00:39:27;;;;;;;19.80;2.63;;;;;;;13.08;57.72;100924.38;6100328;23;97284;-83
2021/11/08 00:41:54;;;;;;;18.88;2.45;;;;;;;13.15;57.47;100942.66;6126098;23;98820;-83
2021/11/08 00:44:21;;;;;;;14.13;2.50;;;;;;;12.62;59.67;100938.72;6130935;23;98943;-82
2021/11/08 00:46:48;;;;;;;22.23;2.70;;;;;;;12.96;58.34;100941.69;6127586;23;96668;-82
2021/11/08 00:49:16;;;;;;;19.95;3.20;;;;;;;12.91;58.11;100946.34;6127580;23;97057;-83
2021/11/08 00:51:45;;;;;;;17.70;2.45;;;;;;;12.92;57.97;100942.75;6125905;23;97970;-83
2021/11/08 00:54:13;;;;;;;9.70;2.05;;;;;;;12.78;58.04;100958.38;6126696;23;99237;-83
2021/11/08 00:56:43;;;;;;;21.30;2.60;;;;;;;12.69;58.79;100953.44;6127134;23;96697;-82
2021/11/08 00:59:11;;;;;;;25.98;3.75;;;;;;;12.93;58.45;100963.03;6127543;23;96820;-82
2021/11/08 01:01:38;;;;;;;20.83;2.70;;;;;;;12.85;58.42;100959.84;6128700;23;99272;-83
2021/11/08 01:04:05;;;;;;;11.43;2.17;;;;;;;12.34;60.27;100960.16;6139682;23;98853;-82
2021/11/08 01:06:32;;;;;;;18.40;2.50;;;;;;;12.73;59.22;100949.75;6139025;23;97033;-83
2021/11/08 01:09:00;;;;;;;18.23;2.17;;;;;;;12.84;58.70;100957.25;6145332;23;96539;-83
2021/11/08 01:11:27;;;;;;;14.85;2.30;;;;;;;12.82;58.90;100959.97;6146133;23;99174;-81
2021/11/08 01:13:53;;;;;;;18.27;2.22;;;;;;;12.95;58.20;100965.63;6145219;23;98101;-82
2021/11/08 01:16:23;;;;;;;14.82;2.72;;;;;;;12.72;58.38;100966.59;6143559;23;96532;-83
2021/11/08 01:18:52;;;;;;;20.30;2.70;;;;;;;12.94;58.68;100966.53;6134536;23;96683;-83
2021/11/08 01:21:19;;;;;;;16.23;2.72;;;;;;;12.87;57.94;100971.25;6134975;23;99354;-83
2021/11/08 01:23:45;;;;;;;28.92;4.45;;;;;;;12.71;59.25;100972.81;6128763;23;98787;-83
2021/11/08 01:26:15;;;;;;;17.20;2.95;;;;;;;12.87;58.36;100976.53;6136904;23;96742;-82
2021/11/08 01:28:46;;;;;;;16.58;2.25;;;;;;;12.86;58.41;100973.97;6144782;23;96469;-85
2021/11/08 01:31:12;;;;;;;20.38;3.13;;;;;;;12.81;58.33;100979.44;6134756;23;99136;-84
2021/11/08 01:33:41;;;;;;;10.75;2.35;;;;;;;13.03;58.24;100974.13;6139548;23;97642;-85
2021/11/08 01:36:14;;;;;;;25.30;3.50;;;;;;;13.04;58.14;100979.38;6137063;23;97144;-85
2021/11/08 01:38:45;;;;;;;14.25;2.25;;;;;;;13.06;57.91;100988.13;6141208;23;96601;-85
2021/11/08 01:41:18;;;;;;;16.10;2.70;;;;;;;13.16;57.45;100981.53;6114530;23;98803;-85
2021/11/08 01:43:45;;;;;;;13.07;2.60;;;;;;;13.31;57.61;100990.66;6138416;22;99682;-82
2021/11/08 01:46:14;;;;;;;18.65;2.63;;;;;;;13.30;57.93;100991.56;6136496;23;96589;-82
2021/11/08 01:48:42;;;;;;;15.88;2.63;;;;;;;12.83;58.48;100990.00;6134204;23;96541;-84
2021/11/08 01:51:12;;;;;;;16.17;2.53;;;;;;;12.79;59.58;100989.28;6134009;23;97757;-83
2021/11/08 01:53:41;;;;;;;15.60;2.72;;;;;;;12.88;58.86;100994.19;6131519;23;98681;-82
2021/11/08 01:56:09;;;;;;;16.48;2.20;;;;;;;12.98;58.54;100998.22;6137824;23;96677;-83
2021/11/08 01:58:38;;;;;;;20.00;2.60;;;;;;;12.79;59.20;101005.19;6137827;23;96567;-82
2021/11/08 02:01:11;;;;;;;18.55;2.50;;;;;;;13.01;58.67;101000.72;6129639;23;99669;-84
2021/11/08 02:03:37;;;;;;;14.55;2.53;;;;;;;12.82;59.06;101002.41;6149820;22;98075;-83
2021/11/08 02:06:04;;;;;;;18.08;2.60;;;;;;;12.89;59.45;101005.66;6150535;22;96282;-80
2021/11/08 02:08:31;;;;;;;22.02;2.63;;;;;;;13.09;58.47;101008.34;6146112;23;96717;-82
2021/11/08 02:10:58;;;;;;;16.23;2.38;;;;;;;13.03;58.85;101009.47;6149448;22;97722;-82
2021/11/08 02:13:25;;;;;;;16.38;2.28;;;;;;;12.92;58.43;101003.75;6146970;23;100492;-82
2021/11/08 02:15:53;;;;;;;17.73;2.42;;;;;;;13.01;59.29;101015.75;6149615;22;96528;-82
2021/11/08 02:18:22;;;;;;;17.58;2.47;;;;;;;12.91;59.52;101011.78;6137419;23;96798;-82
2021/11/08 02:20:51;;;;;;;16.95;2.40;;;;;;;13.05;59.21;101018.25;6131551;23;99288;-82
2021/11/08 02:23:20;;;;;;;24.25;2.97;;;;;;;13.09;59.06;101014.53;6124930;23;99085;-82
2021/11/08 02:25:49;;;;;;;16.60;2.63;;;;;;;12.57;60.68;101017.56;6124693;23;97311;-82
2021/11/08 02:28:17;;;;;;;15.73;2.80;;;;;;;12.98;59.85;101023.88;6124582;23;96853;-80
2021/11/08 02:30:44;;;;;;;13.32;2.42;;;;;;;13.15;59.16;101024.91;6124101;23;98170;-82
2021/11/08 02:33:15;;;;;;;23.95;2.65;;;;;;;13.23;58.44;101026.38;6124103;23;97679;-81
2021/11/08 02:35:42;;;;;;;13.40;2.15;;;;;;;13.12;59.05;101027.72;6123823;23;96538;-82
2021/11/08 02:38:14;;;;;;;17.23;3.00;;;;;;;12.94;59.54;101031.06;6124793;23;96849;-82
2021/11/08 02:40:41;;;;;;;20.83;2.65;;;;;;;12.69;60.20;101032.97;6124471;23;99369;-81
2021/11/08 02:43:07;;;;;;;14.15;2.55;;;;;;;12.99;60.07;101034.41;6124596;23;98800;-81
2021/11/08 02:45:35;;;;;;;15.05;2.30;;;;;;;12.83;60.50;101038.59;6125607;23;96736;-81
2021/11/08 02:48:04;;;;;;;20.33;2.72;;;;;;;12.43;62.22;101033.13;6125745;23;96794;-82
2021/11/08 02:50:33;;;;;;;19.48;2.20;;;;;;;12.66;60.61;101036.63;6130026;23;98873;-81
2021/11/08 02:53:02;;;;;;;16.27;2.60;;;;;;;12.04;62.87;101048.75;6135367;23;98181;-82
2021/11/08 02:55:30;;;;;;;21.15;3.22;;;;;;;12.53;62.16;101046.00;6128027;23;96793;-82
2021/11/08 02:57:57;;;;;;;15.50;2.20;;;;;;;12.56;61.52;101043.19;6129257;23;97207;-81
2021/11/08 03:00:25;;;;;;;11.43;2.25;;;;;;;12.25;63.04;101047.97;6126309;23;99140;-81
2021/11/08 03:02:52;;;;;;;12.23;2.15;;;;;;;12.22;63.52;101051.56;6131092;23;98892;-81
2021/11/08 03:05:30;;;;;;;15.27;2.30;;;;;;;12.53;62.91;101050.44;6146823;22;96439;-81
2021/11/08 03:07:57;;;;;;;12.95;2.35;;;;;;;12.87;61.42;101053.47;6137698;23;96594;-82
2021/11/08 03:10:24;;;;;;;15.88;2.28;;;;;;;12.48;61.88;101055.00;6144290;23;98663;-81
2021/11/08 03:12:56;;;;;;;12.77;1.70;;;;;;;12.56;62.45;101063.53;6136317;23;97984;-81
2021/11/08 03:15:34;;;;;;;14.93;2.38;;;;;;;12.51;62.73;101069.03;6127547;23;96736;-81
2021/11/08 03:18:05;;;;;;;12.23;2.40;;;;;;;12.68;61.95;101063.94;6127231;23;96614;-82
2021/11/08 03:20:33;;;;;;;17.15;2.40;;;;;;;12.78;62.05;101073.28;6126362;23;100848;-81
2021/11/08 03:23:04;;;;;;;18.20;2.70;;;;;;;12.84;61.30;101066.84;6127310;23;99218;-82
2021/11/08 03:25:38;;;;;;;14.68;2.05;;;;;;;12.93;61.12;101070.94;6127023;23;96963;-82
2021/11/08 03:28:09;;;;;;;18.98;2.40;;;;;;;12.91;61.47;101067.47;6126703;23;97128;-82
2021/11/08 03:30:42;;;;;;;17.85;2.33;;;;;;;12.61;62.79;101074.81;6127912;23;98956;-81
2021/11/08 03:33:11;;;;;;;13.32;2.13;;;;;;;13.09;61.61;101083.50;6137044;23;98103;-81
2021/11/08 03:35:39;;;;;;;16.73;1.83;;;;;;;13.03;61.20;101075.81;6125936;23;97349;-82
2021/11/08 03:38:08;;;;;;;19.40;2.70;;;;;;;13.03;61.87;101083.75;6127094;23;96911;-82
2021/11/08 03:40:38;;;;;;;14.85;1.83;;;;;;;12.73;62.03;101082.34;6126470;23;99507;-82
2021/11/08 03:43:08;;;;;;;11.27;1.83;;;;;;;12.68;62.50;101087.78;6135446;23;99182;-82
2021/11/08 03:45:35;;;;;;;10.10;1.88;;;;;;;12.57;63.37;101097.97;6133811;23;96541;-83
2021/11/08 03:48:02;;;;;;;17.88;2.72;;;;;;;12.47;63.29;101099.22;6136852;23;96729;-83
2021/11/08 03:50:28;;;;;;;11.18;1.90;;;;;;;12.85;62.99;101103.06;6136118;23;98236;-83
2021/11/08 03:52:56;;;;;;;12.82;2.28;;;;;;;13.13;62.03;101105.50;6137162;23;99517;-83
2021/11/08 03:55:23;;;;;;;14.30;2.30;;;;;;;12.65;62.36;101102.97;6132696;23;96520;-83
2021/11/08 03:57:51;;;;;;;14.05;2.22;;;;;;;12.81;62.82;101111.19;6129014;23;97133;-83
2021/11/08 04:00:22;;;;;;;13.57;1.73;;;;;;;12.90;63.15;101110.84;6132077;23;99226;-83
2021/11/08 04:02:49;;;;;;;10.68;2.38;;;;;;;13.18;61.93;101116.81;6099746;23;97414;-83
2021/11/08 04:05:18;;;;;;;20.55;2.63;;;;;;;13.02;61.92;101119.16;6125797;23;96988;-82
2021/11/08 04:07:48;;;;;;;12.82;1.80;;;;;;;13.19;61.49;101121.19;6125889;23;96797;-82
2021/11/08 04:10:18;;;;;;;14.88;3.38;;;;;;;13.05;62.09;101124.38;6099448;23;99676;-82
2021/11/08 04:12:47;;;;;;;13.52;2.10;;;;;;;13.26;61.71;101133.25;6125910;23;98801;-82
2021/11/08 04:15:15;;;;;;;18.52;2.25;;;;;;;12.31;64.70;101137.81;6124944;23;96801;-82
2021/11/08 04:17:44;;;;;;;11.63;2.50;;;;;;;12.89;63.41;101130.31;6126304;23;96772;-82
2021/11/08 04:20:13;;;;;;;17.88;2.20;;;;;;;12.90;63.05;101143.53;6124871;23;99301;-81
2021/11/08 04:22:41;;;;;;;14.75;2.45;;;;;;;12.70;63.19;101143.41;6125633;23;98988;-82
2021/11/08 04:25:08;;;;;;;14.45;2.95;;;;;;;12.60;64.51;101139.41;6125995;23;96992;-82
2021/11/08 04:27:37;;;;;;;17.77;2.30;;;;;;;13.14;63.18;101145.25;6125571;23;96991;-81
2021/11/08 04:30:06;;;;;;;16.83;2.10;;;;;;;13.21;62.20;101150.31;6130118;23;99009;-82
2021/11/08 04:32:37;;;;;;;13.15;2.05;;;;;;;13.08;62.22;101155.19;6140071;23;99344;-81
2021/11/08 04:35:11;;;;;;;11.07;2.40;;;;;;;12.69;63.81;101162.91;6144373;23;96509;-82
2021/11/08 04:40:31;;;;;;;20.10;3.80;;;;;;;12.97;63.25;101166.25;6117913;23;98571;-82
2021/11/08 04:43:04;;;;;;;21.02;3.08;;;;;;;13.08;63.11;101165.81;6137023;23;97697;-81
2021/11/08 04:45:46;;;;;;;16.17;2.75;;;;;;;13.28;62.27;101167.72;6138240;23;97177;-81
2021/11/08 04:51:01;;;;;;;23.42;2.97;;;;;;;12.33;65.48;101165.13;6130780;23;97160;-81
2021/11/08 04:53:35;;;;;;;16.85;3.00;;;;;;;12.57;65.02;101168.66;6125167;23;100031;-81
2021/11/08 04:56:37;;;;;;;16.20;2.97;;;;;;;12.26;64.15;101167.13;6126262;23;96811;-82
2021/11/08 05:24:17;;;;;;;22.50;3.30;;;;;;;13.06;62.13;101207.47;6111488;23;97932;-82
2021/11/08 05:32:12;;;;;;;14.00;2.25;;;;;;;13.42;61.68;101218.47;6136338;23;96627;-82
2021/11/08 05:34:41;;;;;;;12.98;2.30;;;;;;;13.37;62.15;101223.09;6140123;23;97769;-82
2021/11/08 05:37:09;;;;;;;16.98;3.13;;;;;;;12.42;64.56;101227.53;6116984;23;96758;-82
2021/11/08 05:39:38;;;;;;;18.42;2.53;;;;;;;12.88;62.39;101224.06;6140490;23;96721;-82
2021/11/08 05:42:05;;;;;;;17.63;2.65;;;;;;;12.79;63.88;101222.66;6136556;23;96747;-82
2021/11/08 05:44:33;;;;;;;24.27;3.13;;;;;;;12.65;63.57;101230.22;6137031;23;99205;-81
2021/11/08 05:46:59;;;;;;;33.08;3.38;;;;;;;13.09;62.88;101236.53;6130023;23;98759;-82
2021/11/08 05:49:26;;;;;;;17.13;2.78;;;;;;;12.82;63.25;101238.41;6127463;23;96715;-81
2021/11/08 05:51:53;;;;;;;17.80;2.60;;;;;;;13.30;61.99;101242.84;6127543;23;97009;-82
2021/11/08 05:54:20;;;;;;;23.27;3.10;;;;;;;13.22;62.37;101245.78;6130153;23;99041;-82
2021/11/08 05:57:01;;;;;;;18.25;2.55;;;;;;;12.72;63.96;101248.50;6127397;23;98818;-82
2021/11/08 05:59:48;;;;;;;18.25;3.17;;;;;;;13.12;62.78;101255.91;6126429;23;97052;-82
2021/11/08 06:51:31;;;;;;;16.73;3.40;;;;;;;13.43;60.37;101343.19;6129047;23;97038;-81
2021/11/08 06:54:01;;;;;;;16.48;2.60;;;;;;;13.65;59.89;101348.53;6126536;23;97034;-81
2021/11/08 06:56:31;;;;;;;17.23;3.33;;;;;;;13.65;59.96;101347.69;6126015;23;96721;-81
2021/11/08 06:58:58;;;;;;;18.60;2.60;;;;;;;13.33;59.63;101352.38;6125507;23;99028;-81
2021/11/08 07:01:28;;;;;;;15.68;2.58;;;;;;;13.27;61.28;101360.59;6125559;23;99304;-81
2021/11/08 07:03:54;;;;;;;17.30;2.70;;;;;;;13.69;60.05;101359.91;6127222;23;97214;-81
2021/11/08 07:06:22;;;;;;;19.67;3.17;;;;;;;13.51;60.32;101369.44;6127091;23;96474;-82
2021/11/08 07:08:49;;;;;;;16.83;2.90;;;;;;;13.60;60.31;101378.81;6126314;23;98989;-82
2021/11/08 07:11:16;;;;;;;14.80;2.90;;;;;;;13.50;60.31;101373.00;6126815;23;99063;-81
2021/11/08 07:13:43;;;;;;;16.40;3.13;;;;;;;13.62;59.43;101383.16;6129685;23;96588;-80
2021/11/08 07:16:09;;;;;;;18.95;2.88;;;;;;;13.90;59.20;101385.63;6130030;23;96845;-81
2021/11/08 07:18:37;;;;;;;28.83;3.05;;;;;;;13.55;59.76;101379.88;6128365;23;99165;-80
2021/11/08 07:21:04;;;;;;;13.10;2.30;;;;;;;13.41;59.53;101381.31;6127958;23;99387;-81
2021/11/08 07:23:30;;;;;;;15.05;2.55;;;;;;;13.75;59.32;101387.09;6130629;23;97330;-81
2021/11/08 07:25:57;;;;;;;14.73;2.60;;;;;;;13.62;59.77;101393.78;6131300;23;96738;-81
2021/11/08 07:28:23;;;;;;;15.13;3.25;;;;;;;13.27;59.99;101400.38;6129204;23;97886;-80
2021/11/08 07:30:49;;;;;;;14.23;3.15;;;;;;;13.56;59.68;101408.16;6128050;23;98851;-80
2021/11/08 07:33:16;;;;;;;17.90;3.38;;;;;;;13.60;58.77;101408.91;6133394;23;96724;-83
2021/11/08 07:35:45;;;;;;;11.80;3.38;;;;;;;12.97;60.70;101417.38;6131155;23;96663;-81
2021/11/08 07:38:12;;;;;;;18.67;2.70;;;;;;;13.51;59.05;101414.56;6129144;23;99385;-81
2021/11/08 07:40:39;;;;;;;28.60;3.05;;;;;;;13.25;59.00;101422.63;6129308;23;97027;-81
2021/11/08 07:43:06;;;;;;;18.42;2.72;;;;;;;13.26;59.71;101425.19;6130507;23;97064;-81
2021/11/08 07:45:33;;;;;;;15.05;3.13;;;;;;;13.43;59.34;101420.16;6131325;23;96794;-80
2021/11/08 07:48:03;;;;;;;13.27;2.97;;;;;;;13.49;58.75;101427.91;6130878;23;98926;-81
2021/11/08 07:50:39;;;;;;;19.33;3.05;;;;;;;13.63;59.27;101431.84;6130740;23;99988;-84
2021/11/08 07:53:08;;;;;;;16.65;2.95;;;;;;;13.54;59.48;101428.59;6123774;23;97136;-79
2021/11/08 07:55:35;;;;;;;11.75;2.75;;;;;;;13.79;58.18;101428.53;6123659;23;96623;-80
2021/11/08 07:58:04;;;;;;;15.65;3.03;;;;;;;14.02;57.59;101426.78;6121085;23;99017;-81
2021/11/08 08:00:31;;;;;;;15.02;2.30;;;;;;;14.22;56.83;101426.88;6120890;23;98888;-79
2021/11/08 08:02:57;;;;;;;16.75;2.05;;;;;;;13.85;57.85;101435.41;6122455;23;97510;-81
2021/11/08 08:05:24;;;;;;;22.00;2.65;;;;;;;13.95;57.45;101429.69;6124803;23;97463;-80
2021/11/08 08:07:51;;;;;;;12.07;2.50;;;;;;;13.44;59.23;101439.63;6123606;23;98786;-79
2021/11/08 08:10:19;;;;;;;15.85;2.45;;;;;;;14.14;57.33;101437.81;6125367;23;98889;-79
2021/11/08 08:12:45;;;;;;;11.30;2.17;;;;;;;14.37;56.19;101434.25;6124504;23;96768;-80
2021/11/08 08:15:13;;;;;;;13.05;2.38;;;;;;;14.46;55.34;101439.22;6133013;23;97941;-80
2021/11/08 08:17:40;;;;;;;13.23;2.17;;;;;;;14.60;55.20;101442.19;6139380;23;97789;-80
2021/11/08 08:20:10;;;;;;;15.95;2.03;;;;;;;14.43;55.94;101438.47;6140321;23;97748;-80
2021/11/08 08:22:37;;;;;;;16.50;2.78;;;;;;;14.82;54.85;101438.63;6125463;23;96680;-79
2021/11/08 08:25:06;;;;;;;17.10;2.50;;;;;;;14.76;55.19;101442.44;6134908;23;96771;-79
2021/11/08 08:27:34;;;;;;;12.68;2.63;;;;;;;14.40;55.82;101450.09;6135962;23;98135;-79
2021/11/08 08:30:01;;;;;;;10.98;2.58;;;;;;;14.28;56.17;101442.59;6139212;23;100825;-79
2021/11/08 08:32:27;;;;;;;19.50;2.95;;;;;;;14.11;55.60;101439.75;6139773;23;96656;-80
2021/11/08 08:34:55;;;;;;;19.95;3.40;;;;;;;14.60;55.96;101450.16;6140800;23;97384;-80
2021/11/08 08:37:21;;;;;;;15.13;2.33;;;;;;;14.68;54.87;101449.84;6141855;23;97836;-80
2021/11/08 08:39:49;;;;;;;16.77;3.20;;;;;;;14.32;55.41;101442.38;6143263;23;97727;-80
2021/11/08 08:42:18;;;;;;;12.48;2.58;;;;;;;14.16;56.41;101456.38;6141957;23;96735;-80
2021/11/08 08:44:46;;;;;;;14.50;2.88;;;;;;;14.46;55.47;101460.47;6137823;23;96615;-80
2021/11/08 08:47:13;;;;;;;16.23;2.85;;;;;;;14.55;55.22;101468.09;6142810;22;99329;-79
2021/11/08 08:49:41;;;;;;;18.90;4.43;;;;;;;14.12;55.82;101474.19;6144624;23;98443;-80
2021/11/08 08:52:12;;;;;;;17.25;3.08;;;;;;;14.41;55.16;101482.88;6143820;23;96928;-78
2021/11/08 08:54:39;;;;;;;17.45;2.50;;;;;;;14.10;55.96;101478.72;6144704;23;96724;-81
2021/11/08 08:57:07;;;;;;;13.10;2.70;;;;;;;13.98;56.45;101485.34;6145966;23;98199;-81
2021/11/08 08:59:34;;;;;;;13.27;2.67;;;;;;;14.17;55.87;101490.88;6144950;23;99641;-80
2021/11/08 09:02:02;;;;;;;9.90;2.20;;;;;;;13.62;57.81;101515.94;6143899;23;97059;-78
2021/11/08 09:04:29;;;;;;;11.70;2.13;;;;;;;13.81;56.90;101498.41;6146737;23;96997;-79
2021/11/08 09:06:56;;;;;;;19.63;3.08;;;;;;;14.00;56.19;101487.09;6149602;22;97743;-79
2021/11/08 09:09:23;;;;;;;13.77;2.55;;;;;;;14.01;55.64;101496.81;6149814;23;97680;-80
2021/11/08 09:11:49;;;;;;;9.20;2.30;;;;;;;14.27;55.59;101512.63;6148920;23;96466;-81
2021/11/08 09:14:16;;;;;;;11.43;2.60;;;;;;;14.09;55.93;101503.56;6150201;23;96286;-81
2021/11/08 09:16:44;;;;;;;13.02;2.30;;;;;;;13.83;56.33;101516.97;6148026;22;96740;-80
2021/11/08 09:19:12;;;;;;;8.45;2.50;;;;;;;14.06;55.95;101508.13;6150038;22;96814;-78
2021/11/08 09:21:40;;;;;;;17.60;3.20;;;;;;;13.60;56.33;101507.16;6148644;23;96390;-81
2021/11/08 09:24:07;;;;;;;18.30;3.75;;;;;;;13.92;57.23;101511.28;6148539;23;96514;-81
2021/11/08 09:26:35;;;;;;;14.52;2.92;;;;;;;13.44;58.22;101519.25;6143560;23;97974;-82
2021/11/08 09:29:03;;;;;;;14.32;2.72;;;;;;;14.11;56.69;101517.66;6108779;23;98855;-82
2021/11/08 09:31:30;;;;;;;22.75;3.13;;;;;;;14.40;55.61;101521.03;6101871;23;96617;-80
2021/11/08 09:34:03;;;;;;;21.17;2.95;;;;;;;14.40;55.78;101519.22;6111203;23;96585;-80
2021/11/08 09:36:32;;;;;;;16.25;2.35;;;;;;;13.98;56.73;101515.53;6110024;23;97142;-81
2021/11/08 09:39:00;;;;;;;16.67;2.85;;;;;;;14.84;54.02;101527.22;6109095;23;97715;-82
2021/11/08 09:41:31;;;;;;;15.88;2.70;;;;;;;14.29;54.79;101519.63;6110200;23;96410;-82
2021/11/08 09:44:01;;;;;;;18.75;3.35;;;;;;;14.61;54.36;101526.38;6109615;23;97257;-81
2021/11/08 09:46:28;;;;;;;13.88;3.10;;;;;;;14.55;54.29;101529.28;6107173;23;98306;-81
2021/11/08 09:48:54;;;;;;;14.90;2.60;;;;;;;14.45;55.25;101535.88;6108803;23;97964;-82
2021/11/08 09:51:22;;;;;;;14.13;2.72;;;;;;;14.11;55.19;101535.41;6107032;23;96974;-81
2021/11/08 09:53:50;;;;;;;14.75;2.38;;;;;;;14.54;54.22;101546.16;6104459;23;97239;-79
2021/11/08 09:56:17;;;;;;;15.27;3.10;;;;;;;14.32;54.36;101539.88;6108808;23;98884;-80
2021/11/08 09:58:43;;;;;;;14.50;2.97;;;;;;;14.46;54.97;101542.06;6106449;23;98103;-82
2021/11/08 10:01:12;;;;;;;16.95;2.75;;;;;;;14.58;54.32;101539.78;6108532;23;96567;-81
2021/11/08 10:03:40;;;;;;;14.75;3.05;;;;;;;14.64;54.09;101550.16;6107557;23;96768;-81
2021/11/08 10:06:07;;;;;;;14.90;3.03;;;;;;;15.19;52.85;101547.94;6106877;23;99739;-81
2021/11/08 10:08:36;;;;;;;16.42;2.28;;;;;;;15.07;52.99;101554.63;6107249;23;101614;-80
2021/11/08 10:11:12;;;;;;;17.35;2.38;;;;;;;15.32;52.14;101548.28;6107398;23;96623;-81
2021/11/08 10:13:41;;;;;;;14.87;2.93;;;;;;;15.20;52.49;101554.13;6107562;23;96519;-83
2021/11/08 10:16:10;;;;;;;18.33;2.97;;;;;;;15.21;51.88;101561.19;6105846;23;99388;-82
2021/11/08 10:18:39;;;;;;;15.55;2.55;;;;;;;14.61;54.10;101566.25;6103936;23;99591;-82
2021/11/08 10:21:09;;;;;;;20.35;3.75;;;;;;;14.22;55.32;101551.81;6097430;23;96886;-81
2021/11/08 10:23:37;;;;;;;19.65;2.67;;;;;;;14.72;53.53;101563.16;6103041;23;96705;-81
2021/11/08 10:26:08;;;;;;;24.40;3.60;;;;;;;14.86;52.85;101554.63;6112592;23;98206;-81
2021/11/08 10:28:34;;;;;;;28.13;3.00;;;;;;;15.02;53.33;101550.44;6133389;22;98789;-81
2021/11/08 10:31:05;;;;;;;22.52;3.65;;;;;;;15.52;51.55;101554.53;6138000;23;96551;-81
2021/11/08 10:33:34;;;;;;;30.33;3.22;;;;;;;15.72;51.08;101552.78;6132890;23;96659;-81
2021/11/08 10:36:09;;;;;;;15.23;2.85;;;;;;;15.87;50.56;101558.31;6126412;23;98356;-80
2021/11/08 10:38:37;;;;;;;18.25;3.47;;;;;;;16.12;50.11;101568.72;6123902;23;98876;-80
2021/11/08 10:41:07;;;;;;;18.27;3.08;;;;;;;16.46;48.60;101568.06;6123598;23;96886;-80
2021/11/08 10:43:36;;;;;;;10.63;2.20;;;;;;;16.26;48.86;101566.31;6125060;23;96784;-80
2021/11/08 10:46:06;;;;;;;17.10;2.97;;;;;;;16.70;48.30;101571.38;6123289;22;100327;-81
2021/11/08 10:48:35;;;;;;;9.52;1.90;;;;;;;16.79;47.76;101576.28;6123698;23;98223;-80
2021/11/08 10:51:04;;;;;;;15.10;3.00;;;;;;;16.47;48.27;101575.13;6124095;23;96701;-81
2021/11/08 10:53:47;;;;;;;21.60;3.05;;;;;;;16.25;48.86;101574.38;6126687;23;97102;-80
2021/11/08 10:56:20;;;;;;;17.05;2.65;;;;;;;16.20;49.48;101574.59;6131993;23;98944;-80
2021/11/08 10:58:47;;;;;;;15.82;2.25;;;;;;;15.98;48.57;101572.94;6134526;23;97941;-83
2021/11/08 11:01:22;;;;;;;18.88;2.75;;;;;;;15.83;49.96;101569.16;6131726;23;96728;-81
2021/11/08 11:03:50;;;;;;;15.25;2.63;;;;;;;15.90;49.94;101568.81;6127169;23;96697;-82
2021/11/08 11:06:17;;;;;;;15.27;2.38;;;;;;;16.22;49.10;101564.69;6126368;23;99171;-81
2021/11/08 11:08:49;;;;;;;15.45;2.83;;;;;;;16.45;48.62;101578.78;6125356;23;101836;-80
2021/11/08 11:11:19;;;;;;;14.63;3.55;;;;;;;16.11;49.36;101574.13;6128755;23;97155;-80
2021/11/08 11:13:53;;;;;;;13.15;2.33;;;;;;;16.43;48.66;101573.50;6126597;23;97309;-81
2021/11/08 11:16:34;;;;;;;16.38;2.63;;;;;;;16.19;48.92;101578.19;6125889;23;98789;-81
2021/11/08 11:19:03;;;;;;;13.02;2.08;;;;;;;16.22;49.24;101574.50;6127102;23;99110;-81
2021/11/08 11:21:29;;;;;;;11.45;1.88;;;;;;;16.28;49.05;101577.75;6127943;23;96625;-80
2021/11/08 11:24:01;;;;;;;15.40;2.78;;;;;;;16.05;49.76;101571.75;6127736;23;97042;-80
2021/11/08 11:26:34;;;;;;;20.75;2.53;;;;;;;16.30;48.84;101578.56;6130642;23;98926;-81
2021/11/08 11:29:01;;;;;;;13.93;3.05;;;;;;;16.43;48.97;101585.97;6127355;23;98888;-82
2021/11/08 11:31:30;;;;;;;17.83;2.95;;;;;;;15.91;49.97;101580.34;6130411;23;97352;-80
2021/11/08 11:34:10;;;;;;;21.25;3.20;;;;;;;15.63;50.63;101579.81;6132437;23;97090;-80
2021/11/08 11:36:37;;;;;;;16.58;2.85;;;;;;;16.08;49.91;101582.28;6133228;23;98913;-80
2021/11/08 11:39:07;;;;;;;13.45;2.60;;;;;;;16.35;49.37;101579.19;6135165;23;98922;-80
2021/11/08 11:41:39;;;;;;;18.65;2.45;;;;;;;16.19;49.60;101580.84;6130835;23;96723;-79
2021/11/08 11:44:08;;;;;;;17.58;2.03;;;;;;;16.25;49.36;101579.72;6134846;23;97038;-80
2021/11/08 11:46:37;;;;;;;16.90;2.35;;;;;;;16.09;49.33;101582.19;6127741;23;99663;-79
2021/11/08 11:49:08;;;;;;;10.48;1.90;;;;;;;15.86;50.13;101577.91;6126619;23;100893;-80
2021/11/08 11:51:38;;;;;;;13.57;2.47;;;;;;;16.24;48.96;101572.63;6127595;23;96662;-80
2021/11/08 11:54:13;;;;;;;15.13;2.75;;;;;;;15.98;49.57;101580.94;6128853;23;97058;-81
2021/11/08 11:56:52;;;;;;;13.13;2.50;;;;;;;16.18;49.40;101581.78;6127735;23;97860;-80
2021/11/08 11:59:23;;;;;;;13.40;2.65;;;;;;;16.42;48.77;101584.25;6134680;23;97709;-82
2021/11/08 12:01:53;;;;;;;14.65;2.67;;;;;;;16.33;48.92;101589.09;6106721;23;96863;-81
2021/11/08 12:04:21;;;;;;;16.35;2.55;;;;;;;16.34;48.88;101584.63;6132552;23;96638;-81
2021/11/08 12:06:51;;;;;;;14.38;2.38;;;;;;;16.44;48.34;101595.72;6132357;23;97058;-79
2021/11/08 12:09:21;;;;;;;11.43;2.33;;;;;;;16.08;48.21;101584.94;6137459;23;97744;-80
2021/11/08 12:11:52;;;;;;;14.07;2.83;;;;;;;15.32;51.17;101586.44;6139463;23;96588;-81
2021/11/08 12:14:23;;;;;;;13.40;2.67;;;;;;;16.07;49.76;101593.88;6146069;23;96728;-82
2021/11/08 12:16:58;;;;;;;15.32;2.60;;;;;;;16.60;48.13;101588.78;6147938;22;98654;-82
2021/11/08 12:19:28;;;;;;;18.65;2.47;;;;;;;16.79;47.51;101575.41;6144183;23;98100;-80
2021/11/08 12:21:56;;;;;;;14.45;2.90;;;;;;;16.40;48.57;101575.47;6144235;23;95992;-83
2021/11/08 12:24:24;;;;;;;17.40;3.63;;;;;;;16.55;47.39;101572.94;6150370;22;97228;-82
2021/11/08 12:27:06;;;;;;;11.45;2.28;;;;;;;16.81;46.87;101582.41;6139693;23;96738;-83
2021/11/08 12:29:34;;;;;;;13.93;2.58;;;;;;;17.14;46.29;101579.88;6129975;23;99666;-82
2021/11/08 12:32:04;;;;;;;13.73;2.45;;;;;;;17.33;46.08;101583.38;6132580;23;96556;-82
2021/11/08 12:34:39;;;;;;;17.55;3.10;;;;;;;17.47;45.20;101574.66;6130021;23;96717;-83
2021/11/08 12:37:07;;;;;;;10.20;1.77;;;;;;;16.96;46.23;101580.78;6131876;23;97081;-82
2021/11/08 12:39:36;;;;;;;14.95;1.88;;;;;;;17.02;46.10;101588.50;6136336;23;98877;-82
2021/11/08 12:42:08;;;;;;;11.48;2.10;;;;;;;16.75;46.36;101572.00;6145047;23;96738;-82
2021/11/08 12:44:39;;;;;;;11.35;2.13;;;;;;;16.91;46.40;101581.03;6148165;22;96855;-83
2021/11/08 12:47:08;;;;;;;15.90;2.60;;;;;;;16.93;46.43;101584.50;6150225;22;98620;-82
2021/11/08 12:49:39;;;;;;;12.07;2.38;;;;;;;16.67;46.42;101583.06;6148891;22;100030;-82
2021/11/08 12:52:14;;;;;;;13.80;2.13;;;;;;;16.27;47.14;101589.38;6150144;22;96393;-82